Big Flats, Wisconsin
Current Conditions -  °F | °C
As of 12:55 PM on Saturday 25 Oct 2014 (Local Time) from KVOK Reporting Station
Few Clouds Few Clouds  
Wind Chill: 64°   Ceiling: Unl
Heat Index: 64°   Visibility: 10mi
Dew Point: 30°   Wind: 20mph
Humidity: 28%   Direction: 290°WNW
Pressure: 29.95"   Gusts: 26mph
Location:  44.0724°N, 89.9031°W
Report Text: KVOK 251755Z 29017G23KT 10SM FEW100 18/M01 A2995 RMK AO2A SLP141 58005
Loading
Personal Weather Stations






























Interactive Weather Map
Tropical Storm Tracking
New forecast layout! Learn more

10-Day Weather Forecast

Advertisements
Track Severe Weather on mobile